NCAR-RAP Real-Time Weather Data

Output produced by METARs form (10 April 2020  06:43 UTC)
found at http://weather.rap.ucar.edu/surface/
 
KGJT 100553Z AUTO 00000KT 10SM CLR 06/01 A3000 RMK AO2 SLP123 T00610006 10178 20061 51012
KGJT 100453Z AUTO 05003KT 10SM CLR 08/01 A3000 RMK AO2 SLP123 T00780006
KGJT 100353Z AUTO 00000KT 10SM CLR 08/01 A2999 RMK AO2 SLP123 T00830011
KGJT 100253Z 06004KT 8SM FEW120 12/02 A2997 RMK AO2 SLP114 T01170017 53007
KGJT 100153Z 00000KT 10SM CLR 14/03 A2994 RMK AO2 SLP103 T01440028
KGJT 100053Z 25007KT 10SM FEW090 SCT120 16/02 A2993 RMK AO2 SLP102 T01560022
KGJT 092353Z 29011KT 10SM SCT120 18/02 A2994 RMK AO2 WSHFT 2325 SLP100 T01780017 10217 20172 51005
KGJT 092345Z 29012KT 10SM FEW070 FEW085 BKN110 18/02 A2994 RMK AO2 WSHFT 2325 T01780022
KGJT 092253Z 25010KT 10SM FEW075 OVC100 18/01 A2994 RMK AO2 PK WND 23028/2218 SLP099 T01780011
KGJT 092153Z 25014G19KT 10SM FEW110 19/M01 A2993 RMK AO2 SLP093 T01941011
KGJT 092053Z AUTO 28010KT 10SM CLR 21/M02 A2992 RMK AO2 SLP088 T02111017 58021
KGJT 091953Z 32008G17KT 10SM CLR 21/M03 A2995 RMK AO2 SLP099 T02061028
KGJT 091853Z 28012KT 10SM CLR 20/M03 A2997 RMK AO2 SLP107 T02001028
KGJT 091753Z 30010KT 10SM CLR 19/M05 A2999 RMK AO2 SLP116 T01891050 10189 20061 58013
KGJT 091653Z 31004KT 10SM CLR 17/M07 A3002 RMK AO2 SLP124 T01671067
KGJT 091553Z 15006KT 10SM CLR 14/M08 A3003 RMK AO2 SLP130 T01391078
KGJT 091453Z 13004KT 10SM CLR 12/M05 A3004 RMK AO2 SLP139 T01171050 51008
KGJT 091353Z 17004KT 10SM CLR 09/M07 A3003 RMK AO2 SLP133 T00891067
KGJT 091253Z 10010KT 10SM CLR 08/M07 A3002 RMK AO2 SLP123 T00781067
KGJT 091153Z 12013KT 10SM CLR 07/M06 A3001 RMK AO2 SLP119 T00721061 10100 20061 53005
KGJT 091053Z AUTO 15011KT 10SM CLR 09/M08 A3000 RMK AO2 SLP113 T00891078
KGJT 090953Z AUTO 13011KT 10SM CLR 08/M06 A2999 RMK AO2 SLP112 T00781061
KGJT 090853Z AUTO 12013KT 10SM CLR 08/M07 A2999 RMK AO2 SLP113 T00831067 55001